Traditional Chinese Simplified Chinese
Climatological Information for Winter Solstice recorded at Hong Kong Observatory
dotted-line

Climatological Information for Winter Solstice recorded at
Hong Kong Observatory
(Period: 1947 - 2016)

Go To HEAVY SNOWGo To MODERATE COLD
Day
(yyyy-mm-dd)
Air Temperature Daily
Relative
Humidity
(%)
Daily
Total
Rainfall
(mm)
Daily
Total
Cloud Amount
(%)
Maximum
(Degree C)
Mean
(Degree C)
Minimum
(Degree C)
1947-12-23 18.2 14.9 13.1 60 - ###
1948-12-22 22.6 19.7 18.3 92 0.3 ###
1949-12-22 19.4 18.5 17.7 92 Trace 95
1950-12-22 18.1 15.1 11.9 70 - 34
1951-12-23 26.8 21.6 18.9 79 - 51
1952-12-22 18.6 15.5 13.7 69 - 45
1953-12-22 23.1 20.1 18.2 85 - 76
1954-12-22 19.4 16.6 13.6 80 - 10
1955-12-22 17.7 15.3 12.3 67 - 12
1956-12-22 16.9 15.1 12.9 85 0.4 100
1957-12-22 22.6 18.0 15.0 68 - 4
1958-12-22 23.5 18.9 15.3 76 - 10
1959-12-22 18.6 16.9 15.6 67 - 97
1960-12-22 19.5 16.6 13.3 74 - 11
1961-12-22 19.1 18.1 17.3 71 - 89
1962-12-22 21.2 17.3 15.1 60 - 34
1963-12-22 19.9 17.1 14.2 64 - 2
1964-12-22 21.7 17.8 14.0 61 - 24
1965-12-22 25.5 21.9 20.2 87 - 51
1966-12-22 21.5 19.9 18.2 79 0.2 93
1967-12-22 18.8 16.6 15.2 75 - 38
1968-12-22 16.7 13.9 11.2 58 0.9 82
1969-12-22 22.2 18.1 14.7 71 - 6
1970-12-22 25.1 21.4 19.1 74 Trace 58
1971-12-22 17.3 16.3 15.5 91 21.4 96
1972-12-22 18.8 16.7 14.6 87 0.3 77
1973-12-22 18.9 14.8 12.1 28 - 11
1974-12-22 20.0 16.5 14.0 63 - 50
1975-12-22 16.3 12.3 9.5 35 - 20
1976-12-22 25.9 21.8 19.0 77 - 45
1977-12-22 21.5 19.8 18.6 80 Trace 71
1978-12-22 19.6 16.9 14.0 67 - 17
1979-12-22 24.2 20.2 18.3 86 - 41
1980-12-22 18.8 16.6 14.0 56 - 72
1981-12-22 18.9 15.8 13.0 61 - 3
1982-12-22 19.5 16.5 13.7 54 - 3
1983-12-22 21.7 18.3 15.0 68 - 17
1984-12-22 13.0 11.5 10.4 70 - 100
1985-12-22 19.1 15.8 13.5 52 - 8
1986-12-22 18.7 15.8 13.1 63 - 15
1987-12-22 18.6 16.3 14.4 64 - 8
1988-12-21 23.3 19.7 16.9 68 - 6
1989-12-22 20.2 18.8 17.3 86 2.8 84
1990-12-22 20.7 18.8 17.0 61 Trace 47
1991-12-22 20.4 19.0 17.9 79 - 83
1992-12-21 25.4 22.0 19.6 80 - 28
1993-12-22 15.8 13.0 10.5 48 - 15
1994-12-22 19.1 16.4 13.7 75 - 28
1995-12-22 19.2 17.1 14.8 72 - 24
1996-12-21 20.1 17.3 14.6 67 - 6
1997-12-22 20.7 18.9 16.7 88 4.0 99
1998-12-22 25.7 22.0 19.9 78 - 26
1999-12-22 10.2 8.5 6.7 30 - 1
2000-12-21 17.9 15.9 13.9 67 - 77
2001-12-22 14.3 11.7 8.9 45 - 14
2002-12-22 20.1 18.7 17.3 80 - 66
2003-12-22 18.5 16.3 14.3 71 - 13
2004-12-21 21.0 19.9 19.2 76 - 72
2005-12-22 14.8 12.7 10.4 32 - 4
2006-12-22 20.0 17.2 14.6 55 - 6
2007-12-22 23.7 21.7 20.1 84 Trace 73
2008-12-21 23.9 21.1 19.3 61 - 37
2009-12-22 18.3 16.0 14.2 72 - 38
2010-12-22 22.4 19.3 17.4 64 - 10
2011-12-22 20.5 17.9 16.1 61 - 41
2012-12-21 22.8 20.7 18.9 89 Trace 76
2013-12-22 16.0 13.5 11.3 62 - 26
2014-12-22 15.5 13.6 10.9 52 - 44
2015-12-22 20.6 19.9 18.7 87 0.6 88
2016-12-21 22.6 21.9 21.0 90 2.8 85
Maximum
26.8 22.0 21.0 92 21.4 100
Minimum
10.2 8.5 6.7 28 - 1
Normals
(1961-1990)
20.2 17.4 15.1 67 0.9 42
Normals
(1971-2000)
19.7 17.0 14.7 67 1.0 39
Normals
(1981-2010)
19.5 17.1 14.9 66 0.2 34
### means data not available
Column's Maximum in light red background colour
Column's Minimum in light blue background colour